Weather at Longonot Fair Airstrip

Public forecast

Using degrees Celsius for public forecast. Weather courtesy of forecast.io.

Closest aviation weather report (METAR) to Longonot Fair Airstrip

Closest report is Nakuru Airport, 34.1 nm (63.2 km) NNW. Retrieved 2022/08/10 07:00 UTC (55 minutes ago):

HKNK 100700Z 14008KT 9999 BKN021 19/11

Closest aviation forecast (TAF) to Longonot Fair Airstrip

Closest forecast is Nairobi Wilson Airport, 39.5 nm (73.2 km) SE. Retrieved 2022/08/10 06:45 UTC (1 hour ago):

TAF HKNW 100500Z 1006/1106 17010KT 9999 BKN024 BECMG 1018/1021 07005KT BECMG 1102/1105 23005KT BKN015